Augusta, Arkansas
Current Conditions -  °F | °C
As of 11:56 AM on Sunday 25 Jan 2015 (Local Time) from KSRC Reporting Station
Few Clouds Few Clouds  
Wind Chill: 16°   Ceiling: Unl
Heat Index: 16°   Visibility: 10mi
Dew Point:   Wind: 17mph
Humidity: 46%   Direction: 250°WSW
Pressure: 29.7"   Gusts: 24mph
Location:  35.28°N, 91.37°W
Report Text: KSRC 251756Z AUTO 25015G21KT 10SM FEW047 16/04 A2970 RMK AO2 SLP065 60000 T01560039 10156 20056 58014 TSNO
Loading
Personal Weather Stations






























Interactive Weather Map New forecast layout! Learn more

10-Day Weather Forecast

Advertisements
Track Severe Weather on mobile